createdAt,value
2023-12-09T00:01:19.932Z,2.00
2023-12-09T00:03:47.731Z,2.20
2023-12-09T00:06:16.098Z,2.20
2023-12-09T00:08:43.887Z,2.20
2023-12-09T00:11:11.667Z,2.20
2023-12-09T00:13:39.524Z,2.20
2023-12-09T00:16:07.709Z,2.20
2023-12-09T00:18:35.656Z,2.20
2023-12-09T00:21:04.038Z,2.30
2023-12-09T00:23:31.907Z,2.30
2023-12-09T00:25:59.786Z,2.30
2023-12-09T00:28:27.614Z,2.20
2023-12-09T00:30:55.924Z,2.20
2023-12-09T00:33:24.051Z,2.20
2023-12-09T00:35:52.020Z,2.20
2023-12-09T00:38:19.878Z,2.30
2023-12-09T00:40:47.712Z,2.30
2023-12-09T00:43:15.607Z,2.30
2023-12-09T00:45:43.554Z,2.30
2023-12-09T00:48:11.629Z,2.30
2023-12-09T00:50:39.597Z,2.30
2023-12-09T00:53:07.429Z,2.30
2023-12-09T00:55:35.294Z,2.40
2023-12-09T00:58:03.118Z,2.30
2023-12-09T01:00:31.075Z,2.40
2023-12-09T01:02:59.022Z,2.30
2023-12-09T01:05:26.922Z,2.30
2023-12-09T01:07:54.718Z,2.30
2023-12-09T01:10:22.377Z,2.30
2023-12-09T01:12:50.350Z,2.30
2023-12-09T01:15:18.331Z,2.30
2023-12-09T01:17:46.403Z,2.30
2023-12-09T01:20:15.560Z,2.30
2023-12-09T01:22:43.431Z,2.30
2023-12-09T01:25:11.439Z,2.20
2023-12-09T01:27:39.283Z,2.30
2023-12-09T01:30:08.051Z,2.30
2023-12-09T01:32:35.910Z,2.40
2023-12-09T01:35:05.014Z,2.40
2023-12-09T01:37:32.752Z,2.40
2023-12-09T01:40:00.568Z,2.40
2023-12-09T01:42:28.612Z,2.40
2023-12-09T01:44:56.708Z,2.40
2023-12-09T01:47:24.978Z,2.40
2023-12-09T01:49:55.312Z,2.40
2023-12-09T01:52:23.256Z,2.50
2023-12-09T01:54:51.322Z,2.50
2023-12-09T01:57:19.665Z,2.50
2023-12-09T01:59:47.583Z,2.40
2023-12-09T02:02:15.521Z,2.40
2023-12-09T02:04:43.503Z,2.50
2023-12-09T02:07:11.350Z,2.40
2023-12-09T02:09:43.079Z,2.40
2023-12-09T02:12:46.988Z,2.50
2023-12-09T02:15:30.626Z,2.50
2023-12-09T02:18:05.557Z,2.50
2023-12-09T02:20:34.438Z,2.50
2023-12-09T02:23:09.835Z,2.50
2023-12-09T02:25:39.191Z,2.50
2023-12-09T02:28:30.968Z,2.60
2023-12-09T02:31:28.749Z,2.50
2023-12-09T02:33:58.660Z,2.60
2023-12-09T02:36:28.701Z,2.50
2023-12-09T02:38:57.746Z,2.60
2023-12-09T02:41:28.305Z,2.60
2023-12-09T02:43:57.238Z,2.50
2023-12-09T02:46:25.442Z,2.50
2023-12-09T02:51:21.610Z,2.60
2023-12-09T02:53:49.429Z,2.60
2023-12-09T02:56:17.199Z,2.60
2023-12-09T02:58:45.065Z,2.60
2023-12-09T03:01:12.896Z,2.70
2023-12-09T03:03:40.749Z,2.70
2023-12-09T03:06:08.578Z,2.60
2023-12-09T03:08:42.177Z,2.50
2023-12-09T03:11:09.951Z,2.60
2023-12-09T03:13:37.778Z,2.60
2023-12-09T03:16:06.043Z,2.60
2023-12-09T03:18:34.075Z,2.60
2023-12-09T03:21:01.996Z,2.60
2023-12-09T03:23:29.818Z,2.60
2023-12-09T03:25:57.637Z,2.50
2023-12-09T03:28:25.534Z,2.60
2023-12-09T03:30:53.370Z,2.50
2023-12-09T03:33:24.408Z,2.50
2023-12-09T03:35:52.373Z,2.50
2023-12-09T03:38:20.230Z,2.60
2023-12-09T03:40:47.996Z,2.70
2023-12-09T03:43:15.812Z,2.60
2023-12-09T03:45:45.894Z,2.60
2023-12-09T03:48:14.014Z,2.60
2023-12-09T03:50:41.957Z,2.50
2023-12-09T03:53:09.795Z,2.70
2023-12-09T03:55:37.712Z,2.60
2023-12-09T03:58:07.499Z,2.60
2023-12-09T04:00:35.996Z,2.60
2023-12-09T04:03:05.895Z,2.60
2023-12-09T04:05:35.839Z,2.50
2023-12-09T04:08:06.172Z,2.50
2023-12-09T04:10:33.929Z,2.60
2023-12-09T04:13:01.740Z,2.60
2023-12-09T04:15:29.729Z,2.50
2023-12-09T04:17:57.689Z,2.50
2023-12-09T04:20:25.787Z,2.60
2023-12-09T04:22:53.750Z,2.50
2023-12-09T04:25:22.706Z,2.60
2023-12-09T04:27:50.569Z,2.50
2023-12-09T04:30:18.860Z,2.50
2023-12-09T04:32:46.739Z,2.40
2023-12-09T04:35:15.211Z,2.50
2023-12-09T04:37:45.317Z,2.50
2023-12-09T04:40:15.173Z,2.60
2023-12-09T04:42:44.353Z,2.50
2023-12-09T04:45:12.239Z,2.50
2023-12-09T04:47:40.432Z,2.50
2023-12-09T04:50:12.375Z,2.60
2023-12-09T04:52:40.411Z,2.60
2023-12-09T04:55:09.494Z,2.50
2023-12-09T04:57:37.563Z,2.50
2023-12-09T05:00:06.841Z,2.60
2023-12-09T05:02:34.841Z,2.60
2023-12-09T05:05:02.930Z,2.60
2023-12-09T05:07:30.753Z,2.60
2023-12-09T05:09:58.373Z,2.60
2023-12-09T05:12:28.091Z,2.50
2023-12-09T05:14:56.189Z,2.50
2023-12-09T05:17:24.092Z,2.50
2023-12-09T05:19:51.880Z,2.60
2023-12-09T05:22:19.792Z,2.60
2023-12-09T05:24:47.535Z,2.50
2023-12-09T05:27:15.352Z,2.40
2023-12-09T05:29:44.686Z,2.50
2023-12-09T05:32:12.694Z,2.50
2023-12-09T05:34:40.594Z,2.60
2023-12-09T05:37:08.219Z,2.60
2023-12-09T05:39:36.832Z,2.50
2023-12-09T05:42:05.975Z,2.50
2023-12-09T05:44:33.959Z,2.50
2023-12-09T05:47:01.769Z,2.50
2023-12-09T05:49:29.616Z,2.50
2023-12-09T05:51:57.864Z,2.50
2023-12-09T05:54:25.558Z,2.50
2023-12-09T05:56:53.450Z,2.50
2023-12-09T05:59:21.281Z,2.50
2023-12-09T06:01:49.060Z,2.50
2023-12-09T06:04:16.983Z,2.60
2023-12-09T06:06:44.786Z,2.60
2023-12-09T06:09:12.722Z,2.60
2023-12-09T06:11:40.556Z,2.60
2023-12-09T06:14:08.418Z,2.50
2023-12-09T06:16:36.249Z,2.50
2023-12-09T06:19:04.328Z,2.50
2023-12-09T06:21:32.230Z,2.40
2023-12-09T06:24:00.057Z,2.40
2023-12-09T06:26:28.086Z,2.50
2023-12-09T06:28:55.985Z,2.40
2023-12-09T06:31:23.772Z,2.40
2023-12-09T06:33:51.729Z,2.40
2023-12-09T06:36:19.692Z,2.40
2023-12-09T06:38:47.702Z,2.30
2023-12-09T06:41:15.332Z,2.30
2023-12-09T06:43:43.084Z,2.40
2023-12-09T06:46:10.943Z,2.40
2023-12-09T06:48:41.671Z,2.40
2023-12-09T06:51:17.173Z,2.30
2023-12-09T06:53:48.285Z,2.20
2023-12-09T06:56:22.111Z,2.10
2023-12-09T06:58:50.895Z,2.10
2023-12-09T07:01:26.172Z,2.10
2023-12-09T07:03:54.189Z,2.20
2023-12-09T07:06:27.113Z,2.20
2023-12-09T07:08:55.501Z,2.20
2023-12-09T07:11:23.793Z,2.20
2023-12-09T07:13:51.830Z,2.30
2023-12-09T07:16:19.781Z,2.40
2023-12-09T07:18:48.821Z,2.40
2023-12-09T07:21:17.629Z,2.40
2023-12-09T07:23:45.517Z,2.40
2023-12-09T07:26:13.566Z,2.40
2023-12-09T07:28:41.430Z,2.40
2023-12-09T07:31:09.494Z,2.50
2023-12-09T07:33:37.436Z,2.50
2023-12-09T07:36:05.864Z,2.40
2023-12-09T07:38:33.663Z,2.50
2023-12-09T07:41:02.653Z,2.50
2023-12-09T07:43:32.882Z,2.50
2023-12-09T07:46:00.696Z,2.50
2023-12-09T07:48:28.814Z,2.50
2023-12-09T07:50:56.877Z,2.60
2023-12-09T07:53:24.682Z,2.60
2023-12-09T07:55:52.529Z,2.70
2023-12-09T07:58:20.310Z,2.70
2023-12-09T08:00:48.829Z,2.70
2023-12-09T08:03:16.894Z,2.90
2023-12-09T08:05:47.764Z,2.90
2023-12-09T08:08:15.591Z,3.00
2023-12-09T08:10:43.557Z,3.10
2023-12-09T08:13:12.983Z,3.10
2023-12-09T08:15:42.041Z,3.20
2023-12-09T08:18:12.344Z,3.30
2023-12-09T08:20:41.509Z,3.20
2023-12-09T08:23:09.379Z,3.30
2023-12-09T08:25:37.214Z,3.30
2023-12-09T08:28:07.103Z,3.40
2023-12-09T08:30:35.023Z,3.50
2023-12-09T08:33:03.131Z,3.50
2023-12-09T08:35:31.932Z,3.40
2023-12-09T08:37:59.788Z,3.40
2023-12-09T08:40:32.005Z,3.40
2023-12-09T08:42:59.848Z,3.40
2023-12-09T08:45:27.556Z,3.40
2023-12-09T08:47:55.490Z,3.60
2023-12-09T08:50:25.521Z,3.60
2023-12-09T08:52:54.301Z,3.60
2023-12-09T08:55:22.969Z,3.70
2023-12-09T08:57:53.196Z,3.60
2023-12-09T09:00:23.514Z,3.60
2023-12-09T09:02:51.708Z,3.70
2023-12-09T09:05:19.476Z,3.80
2023-12-09T09:07:47.372Z,3.80
2023-12-09T09:10:15.834Z,3.90
2023-12-09T09:12:45.469Z,3.90
2023-12-09T09:15:14.095Z,4.00
2023-12-09T09:17:42.189Z,4.00
2023-12-09T09:20:11.860Z,4.00
2023-12-09T09:22:45.393Z,4.00
2023-12-09T09:25:16.768Z,4.00
2023-12-09T09:27:45.025Z,4.00
2023-12-09T09:30:14.590Z,4.00
2023-12-09T09:32:45.835Z,3.90
2023-12-09T09:35:13.759Z,4.00
2023-12-09T09:37:41.599Z,4.00
2023-12-09T09:40:12.719Z,3.90
2023-12-09T09:42:49.993Z,4.00
2023-12-09T09:45:32.848Z,4.10
2023-12-09T09:48:06.774Z,4.20
2023-12-09T09:50:45.614Z,4.30
2023-12-09T09:53:20.142Z,4.40
2023-12-09T09:55:48.409Z,4.40
2023-12-09T09:58:17.712Z,4.40
2023-12-09T10:00:50.644Z,4.60
2023-12-09T10:03:18.554Z,5.00
2023-12-09T10:05:46.848Z,5.30
2023-12-09T10:08:14.639Z,5.30
2023-12-09T10:10:43.448Z,5.30
2023-12-09T10:13:11.452Z,5.40
2023-12-09T10:15:39.388Z,5.30
2023-12-09T10:18:07.768Z,5.20
2023-12-09T10:20:36.599Z,5.20
2023-12-09T10:23:04.668Z,5.30
2023-12-09T10:25:32.473Z,5.30
2023-12-09T10:28:00.394Z,5.30
2023-12-09T10:30:28.842Z,5.30
2023-12-09T10:32:57.482Z,5.30
2023-12-09T10:35:25.333Z,5.10
2023-12-09T10:37:52.974Z,5.10
2023-12-09T10:40:23.674Z,4.90
2023-12-09T10:42:52.878Z,5.10
2023-12-09T10:45:20.655Z,5.20
2023-12-09T10:47:48.424Z,5.20
2023-12-09T10:50:16.508Z,5.10
2023-12-09T10:52:44.370Z,5.10
2023-12-09T10:55:12.180Z,5.10
2023-12-09T10:57:41.062Z,5.10
2023-12-09T11:00:37.657Z,5.20
2023-12-09T11:03:08.304Z,5.20
2023-12-09T11:05:49.302Z,5.30
2023-12-09T11:08:17.452Z,5.30
2023-12-09T11:10:46.111Z,5.20
2023-12-09T11:13:13.979Z,5.40
2023-12-09T11:15:41.989Z,5.50
2023-12-09T11:18:11.346Z,5.60
2023-12-09T11:20:41.190Z,5.60
2023-12-09T11:23:11.603Z,5.60
2023-12-09T11:25:41.758Z,5.70
2023-12-09T11:28:13.233Z,5.70
2023-12-09T11:30:43.874Z,5.80
2023-12-09T11:33:12.438Z,5.70
2023-12-09T11:35:41.591Z,5.80
2023-12-09T11:38:10.735Z,5.90
2023-12-09T11:40:38.527Z,6.00
2023-12-09T11:43:08.190Z,6.10
2023-12-09T11:45:38.022Z,6.10
2023-12-09T11:48:06.957Z,6.10
2023-12-09T11:50:35.205Z,6.20
2023-12-09T11:53:03.053Z,6.20
2023-12-09T11:55:30.822Z,6.10
2023-12-09T11:57:58.672Z,6.00
2023-12-09T12:00:27.276Z,6.00
2023-12-09T12:02:55.233Z,6.00
2023-12-09T12:05:23.101Z,6.10
2023-12-09T12:07:51.055Z,6.30
2023-12-09T12:10:18.858Z,6.30
2023-12-09T12:12:46.777Z,6.30
2023-12-09T12:15:14.823Z,6.20
2023-12-09T12:17:43.009Z,6.20
2023-12-09T12:20:13.750Z,6.20
2023-12-09T12:22:42.348Z,6.00
2023-12-09T12:25:11.104Z,6.00
2023-12-09T12:27:45.744Z,5.90
2023-12-09T12:30:16.904Z,5.80
2023-12-09T12:32:55.239Z,5.70
2023-12-09T12:35:27.571Z,5.60
2023-12-09T12:37:57.939Z,5.70
2023-12-09T12:40:25.874Z,5.50
2023-12-09T12:42:55.153Z,5.30
2023-12-09T12:45:27.821Z,5.20
2023-12-09T12:47:56.373Z,5.00
2023-12-09T12:50:24.217Z,5.10
2023-12-09T12:52:52.197Z,5.10
2023-12-09T12:55:19.888Z,5.10
2023-12-09T12:57:48.131Z,5.10
2023-12-09T13:00:21.266Z,5.10
2023-12-09T13:02:49.045Z,5.30
2023-12-09T13:05:16.885Z,5.30
2023-12-09T13:07:49.132Z,5.40
2023-12-09T13:10:17.131Z,5.40
2023-12-09T13:12:45.258Z,5.50
2023-12-09T13:15:13.455Z,5.60
2023-12-09T13:17:41.526Z,5.60
2023-12-09T13:20:11.304Z,5.60
2023-12-09T13:22:39.274Z,5.60
2023-12-09T13:25:08.478Z,5.70
2023-12-09T13:27:37.554Z,5.80
2023-12-09T13:30:07.868Z,5.70
2023-12-09T13:32:37.433Z,5.70
2023-12-09T13:35:06.904Z,5.70
2023-12-09T13:37:34.847Z,5.70
2023-12-09T13:40:03.862Z,5.70
2023-12-09T13:42:32.051Z,5.80
2023-12-09T13:45:00.172Z,5.80
2023-12-09T13:47:27.882Z,5.70
2023-12-09T13:49:55.681Z,5.70
2023-12-09T13:52:29.664Z,5.60
2023-12-09T13:54:58.387Z,5.60
2023-12-09T13:57:26.240Z,5.60
2023-12-09T13:59:53.883Z,5.60
2023-12-09T14:02:21.799Z,5.50
2023-12-09T14:04:49.992Z,5.50
2023-12-09T14:07:18.001Z,5.50
2023-12-09T14:09:46.013Z,5.50
2023-12-09T14:12:13.825Z,5.40
2023-12-09T14:14:41.631Z,5.40
2023-12-09T14:17:11.223Z,5.30
2023-12-09T14:19:39.557Z,5.10
2023-12-09T14:22:07.572Z,5.00
2023-12-09T14:24:36.963Z,4.80
2023-12-09T14:27:05.213Z,4.70
2023-12-09T14:29:33.163Z,4.50
2023-12-09T14:32:03.006Z,4.40
2023-12-09T14:34:31.946Z,4.30
2023-12-09T14:37:00.185Z,4.10
2023-12-09T14:39:28.345Z,3.90
2023-12-09T14:41:56.295Z,3.90
2023-12-09T14:44:24.137Z,3.60
2023-12-09T14:46:52.792Z,3.50
2023-12-09T14:49:20.990Z,3.50
2023-12-09T14:51:48.992Z,3.30
2023-12-09T14:54:18.375Z,3.30
2023-12-09T14:56:47.658Z,3.20
2023-12-09T14:59:17.361Z,3.10
2023-12-09T15:01:45.301Z,3.00
2023-12-09T15:04:14.844Z,2.90
2023-12-09T15:06:42.763Z,2.80
2023-12-09T15:09:11.316Z,2.80
2023-12-09T15:11:39.260Z,2.80
2023-12-09T15:14:07.043Z,2.70
2023-12-09T15:16:35.320Z,2.80
2023-12-09T15:19:04.109Z,2.70
2023-12-09T15:21:32.241Z,2.60
2023-12-09T15:24:00.307Z,2.60
2023-12-09T15:26:28.446Z,2.50
2023-12-09T15:28:56.287Z,2.50
2023-12-09T15:31:24.407Z,2.40
2023-12-09T15:33:52.604Z,2.40
2023-12-09T15:36:21.005Z,2.40
2023-12-09T15:38:48.914Z,2.40
2023-12-09T15:41:16.711Z,2.30
2023-12-09T15:43:44.539Z,2.30
2023-12-09T15:46:12.396Z,2.10
2023-12-09T15:48:41.293Z,2.20
2023-12-09T15:51:09.359Z,2.20
2023-12-09T15:53:40.095Z,2.20
2023-12-09T15:56:08.545Z,2.30
2023-12-09T15:58:36.699Z,2.20
2023-12-09T16:01:04.804Z,2.30
2023-12-09T16:03:32.762Z,2.20
2023-12-09T16:06:00.872Z,2.20
2023-12-09T16:08:28.543Z,2.20
2023-12-09T16:10:56.334Z,2.20
2023-12-09T16:13:24.957Z,1.90
2023-12-09T16:15:53.256Z,1.90
2023-12-09T16:18:21.294Z,2.10
2023-12-09T16:20:50.265Z,2.20
2023-12-09T16:23:18.343Z,2.10
2023-12-09T16:26:12.185Z,2.00
2023-12-09T16:28:40.127Z,2.30
2023-12-09T16:31:14.387Z,2.40
2023-12-09T16:33:42.720Z,2.20
2023-12-09T16:36:11.108Z,2.20
2023-12-09T16:38:38.959Z,2.20
2023-12-09T16:41:07.450Z,2.20
2023-12-09T16:43:35.175Z,2.30
2023-12-09T16:46:03.000Z,2.30
2023-12-09T16:48:31.321Z,2.10
2023-12-09T16:50:59.355Z,2.10
2023-12-09T16:53:27.126Z,2.10
2023-12-09T16:55:55.560Z,2.20
2023-12-09T16:58:23.452Z,2.00
2023-12-09T17:00:51.455Z,2.10
2023-12-09T17:03:21.522Z,2.20
2023-12-09T17:05:50.784Z,2.20
2023-12-09T17:08:18.589Z,2.00
2023-12-09T17:10:46.360Z,2.20
2023-12-09T17:13:14.198Z,2.20
2023-12-09T17:15:42.095Z,2.00
2023-12-09T17:18:10.478Z,2.20
2023-12-09T17:20:38.404Z,2.10
2023-12-09T17:23:06.172Z,2.40
2023-12-09T17:25:34.003Z,2.20
2023-12-09T17:28:01.837Z,2.40
2023-12-09T17:30:29.841Z,2.50
2023-12-09T17:32:57.736Z,2.50
2023-12-09T17:35:30.037Z,2.60
2023-12-09T17:37:57.904Z,2.70
2023-12-09T17:40:25.632Z,2.80
2023-12-09T17:42:53.474Z,2.90
2023-12-09T17:45:21.282Z,2.90
2023-12-09T17:47:49.192Z,3.10
2023-12-09T17:50:17.422Z,3.00
2023-12-09T17:52:45.341Z,3.10
2023-12-09T17:55:14.183Z,3.20
2023-12-09T17:57:42.107Z,3.30
2023-12-09T18:00:11.572Z,3.40
2023-12-09T18:02:40.796Z,3.50
2023-12-09T18:05:09.913Z,3.40
2023-12-09T18:07:38.347Z,3.50
2023-12-09T18:10:07.087Z,3.60
2023-12-09T18:12:34.966Z,3.60
2023-12-09T18:15:02.893Z,3.50
2023-12-09T18:17:30.822Z,3.60
2023-12-09T18:19:58.627Z,3.60
2023-12-09T18:22:26.777Z,3.60
2023-12-09T18:24:54.857Z,3.70
2023-12-09T18:27:23.080Z,3.60
2023-12-09T18:29:51.085Z,3.70
2023-12-09T18:32:18.915Z,3.70
2023-12-09T18:34:46.760Z,3.60
2023-12-09T18:37:14.864Z,3.60
2023-12-09T18:39:42.802Z,3.60
2023-12-09T18:42:10.912Z,3.70
2023-12-09T18:44:38.563Z,3.60
2023-12-09T18:47:06.717Z,3.70
2023-12-09T18:49:34.511Z,3.70
2023-12-09T18:52:02.302Z,3.70
2023-12-09T18:54:30.188Z,3.70
2023-12-09T18:56:58.274Z,3.90
2023-12-09T19:02:04.403Z,3.80
2023-12-09T19:04:39.048Z,4.00
2023-12-09T19:07:08.583Z,3.90
2023-12-09T19:09:36.436Z,3.90
2023-12-09T19:12:05.156Z,4.00
2023-12-09T19:14:33.034Z,4.00
2023-12-09T19:17:01.455Z,4.00
2023-12-09T19:19:29.618Z,4.00
2023-12-09T19:21:57.662Z,4.00
2023-12-09T19:24:25.451Z,4.10
2023-12-09T19:27:18.538Z,4.20
2023-12-09T19:32:15.900Z,4.20
2023-12-09T19:34:43.811Z,4.20
2023-12-09T19:37:11.623Z,4.30
2023-12-09T19:39:39.536Z,4.30
2023-12-09T19:42:07.400Z,4.30
2023-12-09T19:44:35.244Z,4.30
2023-12-09T19:47:03.070Z,4.20
2023-12-09T19:49:33.955Z,4.30
2023-12-09T19:52:01.832Z,4.20
2023-12-09T19:54:30.743Z,4.20
2023-12-09T19:56:58.653Z,4.20
2023-12-09T19:59:26.447Z,4.20
2023-12-09T20:01:54.269Z,4.20
2023-12-09T20:04:22.298Z,4.20
2023-12-09T20:06:50.938Z,4.20
2023-12-09T20:09:18.699Z,4.20
2023-12-09T20:11:46.472Z,4.20
2023-12-09T20:14:14.276Z,4.10
2023-12-09T20:16:42.090Z,4.20
2023-12-09T20:19:10.080Z,4.10
2023-12-09T20:21:38.203Z,4.10
2023-12-09T20:24:06.459Z,4.10
2023-12-09T20:26:36.451Z,4.10
2023-12-09T20:29:05.688Z,4.10
2023-12-09T20:31:33.577Z,4.10
2023-12-09T20:34:01.555Z,4.10
2023-12-09T20:36:29.600Z,4.00
2023-12-09T20:38:57.458Z,4.10
2023-12-09T20:41:25.243Z,4.10
2023-12-09T20:43:53.313Z,4.00
2023-12-09T20:46:22.257Z,4.10
2023-12-09T20:48:50.151Z,4.10
2023-12-09T20:51:19.832Z,4.10
2023-12-09T20:53:47.710Z,4.10
2023-12-09T20:56:22.061Z,4.10
2023-12-09T20:58:49.937Z,4.20
2023-12-09T21:01:18.078Z,4.10
2023-12-09T21:03:49.079Z,4.10
2023-12-09T21:06:42.616Z,4.10
2023-12-09T21:09:10.998Z,4.10
2023-12-09T21:11:39.295Z,4.10
2023-12-09T21:14:07.898Z,4.10
2023-12-09T21:16:36.257Z,4.10
2023-12-09T21:19:04.354Z,4.10
2023-12-09T21:21:32.697Z,4.10
2023-12-09T21:24:00.515Z,4.10
2023-12-09T21:26:28.266Z,4.10
2023-12-09T21:28:56.284Z,4.00
2023-12-09T21:31:24.149Z,3.90
2023-12-09T21:33:53.273Z,4.00
2023-12-09T21:36:21.190Z,3.80
2023-12-09T21:38:49.027Z,3.90
2023-12-09T21:41:20.652Z,3.90
2023-12-09T21:43:50.119Z,3.90
2023-12-09T21:46:22.656Z,3.90
2023-12-09T21:48:52.682Z,3.90
2023-12-09T21:51:21.890Z,3.90
2023-12-09T21:53:49.827Z,3.90
2023-12-09T21:56:25.110Z,3.90
2023-12-09T21:58:53.620Z,3.80
2023-12-09T22:01:22.239Z,3.90
2023-12-09T22:03:50.655Z,3.80
2023-12-09T22:06:20.654Z,3.80
2023-12-09T22:08:48.748Z,3.70
2023-12-09T22:11:18.249Z,3.80
2023-12-09T22:13:46.198Z,3.70
2023-12-09T22:16:19.404Z,3.70
2023-12-09T22:18:48.384Z,3.60
2023-12-09T22:21:16.544Z,3.60
2023-12-09T22:23:44.331Z,3.40
2023-12-09T22:26:12.120Z,3.40
2023-12-09T22:28:41.657Z,3.30
2023-12-09T22:31:09.737Z,3.30
2023-12-09T22:33:38.328Z,3.20
2023-12-09T22:36:07.540Z,3.10
2023-12-09T22:38:35.262Z,3.20
2023-12-09T22:41:03.108Z,3.20
2023-12-09T22:43:31.214Z,3.10
2023-12-09T22:45:58.778Z,3.20
2023-12-09T22:48:26.824Z,3.20
2023-12-09T22:50:55.005Z,3.20
2023-12-09T22:53:22.833Z,3.10
2023-12-09T22:55:50.539Z,3.20
2023-12-09T23:01:09.754Z,3.10
2023-12-09T23:03:37.480Z,3.00
2023-12-09T23:06:05.503Z,3.10
2023-12-09T23:08:33.833Z,2.80
2023-12-09T23:11:02.492Z,3.00
2023-12-09T23:13:30.387Z,2.90
2023-12-09T23:15:58.812Z,2.90
2023-12-09T23:18:26.915Z,2.50
2023-12-09T23:20:54.745Z,2.80
2023-12-09T23:23:23.731Z,2.50
2023-12-09T23:25:54.437Z,2.60
2023-12-09T23:28:23.552Z,2.80
2023-12-09T23:30:51.488Z,2.70
2023-12-09T23:33:20.257Z,2.50
2023-12-09T23:35:48.681Z,2.70
2023-12-09T23:38:16.836Z,2.40
2023-12-09T23:40:46.954Z,2.40
2023-12-09T23:43:18.080Z,2.40
2023-12-09T23:45:46.033Z,2.50
2023-12-09T23:48:18.430Z,2.20
2023-12-09T23:50:48.983Z,2.20
2023-12-09T23:53:18.983Z,2.40
2023-12-09T23:55:48.793Z,2.30
2023-12-09T23:58:16.724Z,2.60
